createdAt,value
2023-04-19T00:01:18.179Z,12.18
2023-04-19T00:05:22.348Z,12.20
2023-04-19T00:09:24.544Z,14.52
2023-04-19T00:13:26.584Z,15.35
2023-04-19T00:17:29.204Z,12.95
2023-04-19T00:21:31.490Z,12.73
2023-04-19T00:25:34.801Z,17.15
2023-04-19T00:29:36.837Z,12.45
2023-04-19T00:33:40.538Z,17.88
2023-04-19T00:37:42.607Z,12.10
2023-04-19T00:41:48.387Z,12.68
2023-04-19T00:45:50.708Z,13.13
2023-04-19T00:49:54.220Z,14.38
2023-04-19T00:53:57.340Z,13.45
2023-04-19T00:57:59.903Z,14.95
2023-04-19T01:02:02.158Z,16.45
2023-04-19T01:06:05.080Z,16.27
2023-04-19T01:10:07.321Z,19.63
2023-04-19T01:14:09.434Z,15.05
2023-04-19T01:18:11.474Z,16.15
2023-04-19T01:22:19.391Z,18.30
2023-04-19T01:26:21.415Z,18.05
2023-04-19T01:30:23.416Z,21.58
2023-04-19T01:34:25.713Z,18.60
2023-04-19T01:38:27.786Z,19.05
2023-04-19T01:42:29.789Z,23.83
2023-04-19T01:46:31.961Z,19.42
2023-04-19T01:50:34.346Z,22.45
2023-04-19T01:54:36.402Z,21.50
2023-04-19T01:58:38.503Z,24.30
2023-04-19T02:02:41.180Z,22.13
2023-04-19T02:06:43.752Z,23.13
2023-04-19T02:10:45.781Z,30.58
2023-04-19T02:14:47.943Z,28.67
2023-04-19T02:18:50.083Z,26.45
2023-04-19T02:22:53.614Z,25.40
2023-04-19T02:26:55.674Z,29.25
2023-04-19T02:30:58.278Z,29.55
2023-04-19T02:35:00.399Z,28.80
2023-04-19T02:39:02.620Z,27.50
2023-04-19T02:43:04.940Z,25.92
2023-04-19T02:47:08.062Z,29.75
2023-04-19T02:51:16.520Z,28.08
2023-04-19T02:59:24.196Z,30.60
2023-04-19T03:03:26.818Z,30.75
2023-04-19T03:07:28.570Z,27.50
2023-04-19T03:11:30.796Z,37.80
2023-04-19T03:15:34.704Z,32.63
2023-04-19T03:19:36.986Z,34.25
2023-04-19T03:23:40.149Z,35.00
2023-04-19T03:27:42.388Z,32.05
2023-04-19T03:31:48.163Z,31.90
2023-04-19T03:35:51.434Z,32.67
2023-04-19T03:39:53.498Z,29.73
2023-04-19T03:44:02.200Z,32.67
2023-04-19T03:48:04.337Z,31.92
2023-04-19T03:52:06.681Z,29.50
2023-04-19T03:56:09.863Z,33.78
2023-04-19T04:00:13.418Z,31.38
2023-04-19T04:04:18.624Z,36.47
2023-04-19T04:08:21.216Z,38.17
2023-04-19T04:12:23.323Z,34.88
2023-04-19T04:16:27.489Z,32.13
2023-04-19T04:20:30.746Z,31.58
2023-04-19T04:24:41.467Z,35.22
2023-04-19T04:29:03.835Z,29.88
2023-04-19T04:33:08.545Z,30.77
2023-04-19T04:37:11.767Z,25.92
2023-04-19T04:41:14.292Z,32.63
2023-04-19T04:45:18.478Z,33.95
2023-04-19T04:49:21.742Z,31.38
2023-04-19T04:53:27.601Z,35.05
2023-04-19T04:57:29.993Z,36.03
2023-04-19T05:01:32.865Z,38.83
2023-04-19T05:05:35.123Z,37.47
2023-04-19T05:09:37.283Z,35.83
2023-04-19T05:13:39.724Z,33.92
2023-04-19T05:17:43.190Z,32.05
2023-04-19T05:21:45.573Z,31.10
2023-04-19T05:25:49.002Z,33.85
2023-04-19T05:29:51.974Z,31.77
2023-04-19T05:33:54.192Z,33.97
2023-04-19T05:37:56.765Z,29.48
2023-04-19T05:42:00.265Z,36.47
2023-04-19T05:46:02.410Z,34.10
2023-04-19T05:50:04.983Z,30.55
2023-04-19T05:54:12.685Z,32.35
2023-04-19T05:58:16.498Z,39.05
2023-04-19T06:02:18.882Z,36.15
2023-04-19T06:06:24.555Z,32.53
2023-04-19T06:10:31.197Z,35.30
2023-04-19T06:14:39.104Z,33.28
2023-04-19T06:18:43.130Z,32.97
2023-04-19T06:22:46.021Z,30.50
2023-04-19T06:26:49.642Z,35.17
2023-04-19T06:30:51.897Z,34.15
2023-04-19T06:34:54.003Z,32.95
2023-04-19T06:38:56.045Z,26.30
2023-04-19T06:42:57.997Z,27.20
2023-04-19T06:47:00.005Z,25.33
2023-04-19T06:51:02.255Z,26.38
2023-04-19T06:55:05.843Z,30.92
2023-04-19T06:59:08.171Z,26.17
2023-04-19T07:03:11.403Z,27.77
2023-04-19T07:07:13.816Z,24.30
2023-04-19T07:11:15.902Z,25.30
2023-04-19T07:15:18.011Z,26.85
2023-04-19T07:19:21.082Z,24.58
2023-04-19T07:23:23.064Z,22.17
2023-04-19T07:27:25.666Z,24.30
2023-04-19T07:31:28.351Z,23.23
2023-04-19T07:35:31.069Z,23.25
2023-04-19T07:39:33.619Z,20.50
2023-04-19T07:43:38.100Z,20.20
2023-04-19T07:47:41.234Z,20.92
2023-04-19T07:51:43.289Z,19.33
2023-04-19T07:55:45.748Z,21.70
2023-04-19T07:59:47.750Z,21.35
2023-04-19T08:03:49.906Z,18.75
2023-04-19T08:07:53.329Z,17.08
2023-04-19T08:11:55.386Z,21.52
2023-04-19T08:20:03.868Z,18.70
2023-04-19T08:24:06.007Z,16.20
2023-04-19T08:28:08.116Z,19.70
2023-04-19T08:32:12.083Z,17.38
2023-04-19T08:36:19.305Z,15.55
2023-04-19T08:40:24.437Z,19.33
2023-04-19T08:44:35.795Z,13.60
2023-04-19T08:48:40.614Z,14.20
2023-04-19T08:52:54.094Z,13.43
2023-04-19T08:57:00.657Z,13.80
2023-04-19T09:01:08.313Z,13.07
2023-04-19T09:05:13.832Z,16.13
2023-04-19T09:09:36.484Z,19.83
2023-04-19T09:13:44.598Z,16.95
2023-04-19T09:18:04.863Z,18.90
2023-04-19T09:22:13.851Z,15.05
2023-04-19T09:26:23.416Z,14.52
2023-04-19T09:30:32.555Z,16.98
2023-04-19T09:34:51.690Z,14.88
2023-04-19T09:38:53.896Z,16.40
2023-04-19T09:47:01.648Z,13.55
2023-04-19T09:51:07.648Z,13.52
2023-04-19T09:55:22.111Z,15.20
2023-04-19T09:59:27.502Z,15.00
2023-04-19T10:03:30.755Z,15.20
2023-04-19T10:07:33.265Z,14.65
2023-04-19T10:11:41.543Z,15.75
2023-04-19T10:15:51.256Z,20.38
2023-04-19T10:20:06.780Z,18.52
2023-04-19T10:24:12.605Z,20.25
2023-04-19T10:28:17.914Z,16.92
2023-04-19T10:32:19.994Z,18.33
2023-04-19T10:36:22.551Z,21.40
2023-04-19T10:41:02.078Z,21.77
2023-04-19T10:45:34.495Z,20.30
2023-04-19T10:49:46.456Z,15.68
2023-04-19T10:53:59.789Z,16.70
2023-04-19T10:58:06.382Z,16.90
2023-04-19T11:02:24.875Z,17.70
2023-04-19T11:06:28.061Z,17.23
2023-04-19T11:10:31.294Z,15.63
2023-04-19T11:14:54.020Z,15.07
2023-04-19T11:18:56.273Z,16.25
2023-04-19T11:23:00.998Z,13.73
2023-04-19T11:27:09.538Z,17.08
2023-04-19T11:31:13.663Z,14.25
2023-04-19T11:35:19.993Z,16.02
2023-04-19T11:39:22.787Z,14.10
2023-04-19T11:43:38.064Z,10.73
2023-04-19T11:47:49.725Z,11.27
2023-04-19T11:51:56.327Z,14.52
2023-04-19T11:56:06.553Z,10.23
2023-04-19T12:00:12.431Z,9.45
2023-04-19T12:04:14.913Z,10.88
2023-04-19T12:08:17.370Z,12.00
2023-04-19T12:12:46.371Z,16.10
2023-04-19T12:17:23.851Z,10.50
2023-04-19T12:21:32.963Z,11.52
2023-04-19T12:25:35.019Z,12.40
2023-04-19T12:29:37.942Z,11.23
2023-04-19T12:33:40.032Z,11.30
2023-04-19T12:37:42.006Z,9.10
2023-04-19T12:41:44.113Z,9.82
2023-04-19T12:45:46.295Z,10.98
2023-04-19T12:49:48.409Z,8.80
2023-04-19T12:53:50.924Z,8.93
2023-04-19T12:57:53.297Z,7.63
2023-04-19T13:01:55.550Z,8.65
2023-04-19T13:05:57.959Z,11.75
2023-04-19T13:10:00.110Z,8.82
2023-04-19T13:14:02.327Z,9.02
2023-04-19T13:18:04.888Z,9.35
2023-04-19T13:22:07.017Z,13.85
2023-04-19T13:26:09.201Z,10.60
2023-04-19T13:30:11.662Z,10.68
2023-04-19T13:34:13.821Z,10.07
2023-04-19T13:38:16.226Z,8.85
2023-04-19T13:42:19.117Z,9.70
2023-04-19T13:46:20.973Z,10.55
2023-04-19T13:50:23.126Z,9.70
2023-04-19T13:54:26.028Z,9.25
2023-04-19T13:58:28.225Z,9.65
2023-04-19T14:02:30.707Z,10.68
2023-04-19T14:06:33.064Z,12.95
2023-04-19T14:10:36.335Z,10.88
2023-04-19T14:14:38.440Z,11.13
2023-04-19T14:18:40.447Z,10.48
2023-04-19T14:22:43.444Z,11.90
2023-04-19T14:26:50.211Z,10.27
2023-04-19T14:30:56.403Z,13.82
2023-04-19T14:34:58.497Z,14.30
2023-04-19T14:39:00.583Z,10.95
2023-04-19T14:43:02.688Z,12.73
2023-04-19T14:47:04.763Z,13.60
2023-04-19T14:51:06.920Z,10.73
2023-04-19T14:55:09.667Z,9.82
2023-04-19T14:59:11.718Z,12.82
2023-04-19T15:03:14.037Z,10.55
2023-04-19T15:07:16.304Z,9.10
2023-04-19T15:11:18.396Z,13.75
2023-04-19T15:15:21.328Z,10.88
2023-04-19T15:19:23.320Z,7.22
2023-04-19T15:23:25.700Z,8.73
2023-04-19T15:27:28.219Z,13.27
2023-04-19T15:31:31.453Z,10.73
2023-04-19T15:35:33.591Z,11.77
2023-04-19T15:39:35.754Z,11.10
2023-04-19T15:43:37.808Z,12.10
2023-04-19T15:47:40.144Z,8.75
2023-04-19T15:51:42.456Z,11.75
2023-04-19T15:55:46.993Z,12.48
2023-04-19T15:59:49.164Z,11.75
2023-04-19T16:03:51.688Z,13.32
2023-04-19T16:08:03.139Z,19.50
2023-04-19T16:12:05.446Z,16.45
2023-04-19T16:16:07.699Z,26.30
2023-04-19T16:20:10.492Z,32.92
2023-04-19T16:24:12.584Z,22.92
2023-04-19T16:28:14.969Z,18.83
2023-04-19T16:32:17.276Z,18.33
2023-04-19T16:36:19.539Z,20.77
2023-04-19T16:40:22.339Z,22.83
2023-04-19T16:44:24.390Z,21.10
2023-04-19T16:48:26.986Z,27.27
2023-04-19T16:52:30.905Z,28.65
2023-04-19T16:56:33.084Z,23.05
2023-04-19T17:00:35.246Z,24.02
2023-04-19T17:04:37.727Z,23.77
2023-04-19T17:08:40.108Z,29.08
2023-04-19T17:12:42.370Z,29.95
2023-04-19T17:16:44.602Z,25.95
2023-04-19T17:20:46.723Z,22.85
2023-04-19T17:24:49.031Z,25.77
2023-04-19T17:28:51.290Z,29.70
2023-04-19T17:32:53.506Z,22.63
2023-04-19T17:36:55.772Z,34.70
2023-04-19T17:40:58.656Z,36.08
2023-04-19T17:45:01.221Z,35.67
2023-04-19T17:49:03.532Z,35.47
2023-04-19T17:53:05.786Z,40.30
2023-04-19T17:57:07.970Z,38.55
2023-04-19T18:01:10.531Z,39.13
2023-04-19T18:05:15.078Z,32.78
2023-04-19T18:09:18.418Z,36.65
2023-04-19T18:13:20.754Z,36.75
2023-04-19T18:17:23.024Z,34.58
2023-04-19T18:21:25.906Z,36.10
2023-04-19T18:25:29.109Z,38.72
2023-04-19T18:29:31.445Z,36.10
2023-04-19T18:33:33.784Z,32.47
2023-04-19T18:37:36.283Z,33.67
2023-04-19T18:41:39.693Z,35.75
2023-04-19T18:45:42.200Z,37.53
2023-04-19T18:49:55.629Z,41.47
2023-04-19T18:54:05.571Z,34.40
2023-04-19T18:58:08.886Z,28.23
2023-04-19T19:02:11.647Z,27.55
2023-04-19T19:06:14.318Z,33.15
2023-04-19T19:10:20.927Z,20.65
2023-04-19T19:14:24.653Z,27.48
2023-04-19T19:18:29.360Z,20.50
2023-04-19T19:22:32.354Z,17.67
2023-04-19T19:26:34.538Z,17.90
2023-04-19T19:30:39.951Z,15.98
2023-04-19T19:34:51.759Z,14.45
2023-04-19T19:38:57.273Z,15.45
2023-04-19T19:43:00.746Z,13.82
2023-04-19T19:47:09.341Z,21.63
2023-04-19T19:51:47.584Z,16.92
2023-04-19T19:55:34.871Z,20.02
2023-04-19T19:59:37.389Z,18.48
2023-04-19T20:03:39.887Z,16.73
2023-04-19T20:11:55.443Z,16.42
2023-04-19T20:15:58.705Z,20.58
2023-04-19T20:20:05.573Z,15.60
2023-04-19T20:24:08.357Z,25.02
2023-04-19T20:28:10.655Z,31.63
2023-04-19T20:32:12.916Z,58.13
2023-04-19T20:36:16.398Z,46.33
2023-04-19T20:40:18.569Z,52.42
2023-04-19T20:44:22.783Z,43.85
2023-04-19T20:48:25.415Z,38.65
2023-04-19T20:52:27.496Z,43.70
2023-04-19T20:56:29.907Z,44.63
2023-04-19T21:00:32.289Z,37.92
2023-04-19T21:04:34.620Z,53.55
2023-04-19T21:08:36.950Z,52.03
2023-04-19T21:12:39.130Z,49.92
2023-04-19T21:16:41.409Z,41.45
2023-04-19T21:20:44.113Z,55.25
2023-04-19T21:24:46.182Z,44.00
2023-04-19T21:28:48.450Z,37.83
2023-04-19T21:32:50.908Z,32.45
2023-04-19T21:36:53.193Z,41.65
2023-04-19T21:40:55.289Z,44.67
2023-04-19T21:44:57.874Z,41.65
2023-04-19T21:49:00.055Z,36.75
2023-04-19T21:53:02.252Z,32.15
2023-04-19T21:57:04.576Z,28.00
2023-04-19T22:01:06.891Z,31.27
2023-04-19T22:05:09.493Z,28.17
2023-04-19T22:09:16.058Z,30.00
2023-04-19T22:13:18.435Z,29.45
2023-04-19T22:17:20.909Z,31.92
2023-04-19T22:21:23.304Z,27.92
2023-04-19T22:25:25.716Z,29.65
2023-04-19T22:29:28.000Z,26.23
2023-04-19T22:33:30.193Z,31.65
2023-04-19T22:37:32.319Z,34.30
2023-04-19T22:41:34.810Z,30.70
2023-04-19T22:45:36.908Z,29.15
2023-04-19T22:49:43.073Z,28.90
2023-04-19T22:53:45.249Z,26.88
2023-04-19T22:57:47.410Z,40.35
2023-04-19T23:01:49.718Z,28.98
2023-04-19T23:05:54.273Z,32.80
2023-04-19T23:09:56.574Z,29.88
2023-04-19T23:13:58.858Z,29.92
2023-04-19T23:18:03.710Z,34.45
2023-04-19T23:22:06.348Z,25.52
2023-04-19T23:26:08.568Z,35.38
2023-04-19T23:30:11.117Z,39.75
2023-04-19T23:34:14.077Z,40.38
2023-04-19T23:38:16.469Z,32.40
2023-04-19T23:42:18.750Z,29.98
2023-04-19T23:46:21.560Z,30.17
2023-04-19T23:50:23.981Z,31.15
2023-04-19T23:54:26.496Z,31.20
2023-04-19T23:58:28.640Z,33.13
